Time;durP1;ratioP1;P1;durP2;ratioP2;P2;SDS_P1;SDS_P2;PMS_P1;PMS_P2;Temp;Humidity;BMP_temperature;BMP_pressure;BME280_temperature;BME280_humidity;BME280_pressure;Samples;Min_cycle;Max_cycle;Signal;HPM_P1;HPM_P2
2023/05/27 00:02:07;;;;;;;10.50;3.58;;;11.80;58.10;;;;;;5080016;28;20137;-65
2023/05/27 00:04:33;;;;;;;12.20;3.42;;;11.80;58.20;;;;;;5091549;28;20044;-65
2023/05/27 00:06:59;;;;;;;7.78;3.03;;;11.80;58.20;;;;;;5057996;28;20174;-65
2023/05/27 00:09:25;;;;;;;7.18;2.80;;;11.70;58.20;;;;;;5090654;28;20036;-65
2023/05/27 00:11:50;;;;;;;8.27;2.45;;;11.70;58.20;;;;;;5119167;28;20063;-65
2023/05/27 00:14:17;;;;;;;9.38;3.00;;;11.70;58.30;;;;;;5125739;28;20475;-65
2023/05/27 00:16:43;;;;;;;9.27;2.80;;;11.70;58.30;;;;;;5125098;28;20032;-65
2023/05/27 00:19:09;;;;;;;9.32;3.03;;;11.60;58.40;;;;;;5091273;28;20082;-65
2023/05/27 00:21:35;;;;;;;8.55;2.67;;;11.70;58.50;;;;;;5124096;28;20072;-65
2023/05/27 00:24:01;;;;;;;8.65;3.17;;;11.60;58.50;;;;;;5074290;28;20391;-65
2023/05/27 00:26:26;;;;;;;7.22;2.78;;;11.60;58.70;;;;;;5092484;28;20039;-65
2023/05/27 00:28:52;;;;;;;6.50;3.20;;;11.60;58.70;;;;;;5091229;28;20046;-65
2023/05/27 00:31:18;;;;;;;6.15;3.03;;;11.60;58.80;;;;;;5124973;28;20080;-65
2023/05/27 00:33:44;;;;;;;9.55;3.33;;;11.60;58.80;;;;;;5073900;28;20119;-65
2023/05/27 00:36:10;;;;;;;8.07;3.10;;;11.50;58.70;;;;;;5116693;28;20067;-65
2023/05/27 00:38:36;;;;;;;9.25;2.72;;;11.50;58.80;;;;;;5077659;28;20162;-65
2023/05/27 00:41:03;;;;;;;9.45;3.42;;;11.50;58.80;;;;;;5108877;28;20040;-65
2023/05/27 00:43:32;;;;;;;6.90;2.65;;;11.50;58.90;;;;;;5071059;28;20040;-65
2023/05/27 00:45:58;;;;;;;6.35;2.50;;;11.50;59.00;;;;;;5071119;28;20110;-65
2023/05/27 00:48:25;;;;;;;9.00;3.55;;;11.50;58.90;;;;;;5089365;28;20039;-65
2023/05/27 00:50:51;;;;;;;9.55;3.42;;;11.40;58.90;;;;;;5090792;28;20036;-65
2023/05/27 00:53:17;;;;;;;8.23;3.03;;;11.40;58.90;;;;;;5124846;28;20047;-65
2023/05/27 00:55:43;;;;;;;11.25;3.35;;;11.40;59.00;;;;;;5091461;28;20403;-65
2023/05/27 00:58:09;;;;;;;7.28;3.53;;;11.40;59.00;;;;;;5090983;28;20051;-65
2023/05/27 01:00:38;;;;;;;8.15;2.92;;;11.30;59.00;;;;;;5073964;28;20040;-65
2023/05/27 01:03:06;;;;;;;5.85;2.53;;;11.30;58.90;;;;;;5121325;28;20036;-65
2023/05/27 01:05:33;;;;;;;7.35;2.65;;;11.30;58.90;;;;;;5073968;28;20505;-65
2023/05/27 01:08:38;;;;;;;8.25;2.53;;;11.30;59.00;;;;;;5118464;28;20038;-65
2023/05/27 01:11:07;;;;;;;6.95;3.28;;;11.30;59.00;;;;;;5088056;28;20062;-65
2023/05/27 01:13:49;;;;;;;7.88;3.80;;;11.30;59.10;;;;;;5073763;28;20051;-65
2023/05/27 01:16:17;;;;;;;8.10;2.70;;;11.30;59.20;;;;;;5091357;28;20094;-65
2023/05/27 01:18:47;;;;;;;8.68;2.70;;;11.20;59.10;;;;;;5091659;28;20066;-65
2023/05/27 01:21:18;;;;;;;7.72;3.10;;;11.20;59.10;;;;;;5105436;28;20364;-65
2023/05/27 01:23:47;;;;;;;6.53;2.50;;;11.20;59.10;;;;;;5092518;28;20036;-65
2023/05/27 01:26:13;;;;;;;7.13;2.50;;;11.20;59.10;;;;;;5128441;27;20104;-65
2023/05/27 01:28:40;;;;;;;6.82;2.88;;;11.20;59.10;;;;;;5094018;28;20059;-65
2023/05/27 01:31:15;;;;;;;5.15;2.50;;;11.20;59.20;;;;;;5077505;28;20566;-65
2023/05/27 01:33:46;;;;;;;7.93;2.72;;;11.20;59.30;;;;;;5118778;27;20040;-65
2023/05/27 01:36:16;;;;;;;7.03;2.78;;;11.10;59.40;;;;;;5094813;28;20051;-65
2023/05/27 01:38:45;;;;;;;6.15;2.92;;;11.10;59.40;;;;;;5124158;27;20397;-65
2023/05/27 01:41:14;;;;;;;6.57;2.63;;;11.10;59.40;;;;;;5128735;27;20043;-65
2023/05/27 01:43:40;;;;;;;6.30;2.60;;;11.10;59.40;;;;;;5123799;27;20549;-65
2023/05/27 01:46:06;;;;;;;7.30;2.58;;;11.10;59.40;;;;;;5081947;28;20127;-65
2023/05/27 01:48:32;;;;;;;9.02;3.17;;;11.00;59.30;;;;;;5093708;28;20111;-65
2023/05/27 01:50:58;;;;;;;7.53;2.85;;;11.00;59.40;;;;;;5093395;28;20045;-65
2023/05/27 01:53:23;;;;;;;9.82;3.10;;;11.00;59.60;;;;;;5127737;27;20044;-65
2023/05/27 01:55:49;;;;;;;6.45;2.97;;;11.00;59.70;;;;;;5094005;28;20050;-65
2023/05/27 01:58:15;;;;;;;7.32;3.08;;;10.90;59.70;;;;;;5093796;28;20072;-65
2023/05/27 02:00:41;;;;;;;7.25;2.92;;;10.90;59.70;;;;;;5110656;27;20131;-65
2023/05/27 02:03:09;;;;;;;7.28;3.60;;;10.90;59.80;;;;;;5053505;28;20056;-65
2023/05/27 02:05:35;;;;;;;7.00;2.35;;;10.90;59.80;;;;;;5081850;28;20229;-65
2023/05/27 02:08:02;;;;;;;8.02;2.88;;;10.90;59.90;;;;;;5093890;28;20044;-65
2023/05/27 02:10:28;;;;;;;6.88;2.78;;;10.80;59.90;;;;;;5077083;28;20044;-65
2023/05/27 02:12:54;;;;;;;5.35;2.50;;;10.80;59.90;;;;;;5128099;27;20454;-65
2023/05/27 02:15:23;;;;;;;6.53;2.40;;;10.80;59.90;;;;;;5111089;27;20115;-65
2023/05/27 02:17:54;;;;;;;4.60;2.25;;;10.80;59.90;;;;;;5122846;27;20051;-65
2023/05/27 02:20:21;;;;;;;4.63;2.78;;;10.80;60.00;;;;;;5093156;28;20399;-65
2023/05/27 02:22:47;;;;;;;8.55;2.35;;;10.80;60.10;;;;;;5127127;27;20562;-65
2023/05/27 02:25:12;;;;;;;7.28;2.75;;;10.80;60.20;;;;;;5111772;27;20124;-65
2023/05/27 02:27:38;;;;;;;6.20;2.78;;;10.80;60.20;;;;;;5081997;28;20047;-65
2023/05/27 02:30:04;;;;;;;8.40;2.80;;;10.80;60.30;;;;;;5075784;28;20028;-65
2023/05/27 02:32:31;;;;;;;7.28;2.63;;;10.70;60.30;;;;;;5093003;28;20127;-65
2023/05/27 02:34:57;;;;;;;6.88;3.00;;;10.70;60.20;;;;;;5092852;28;20097;-65
2023/05/27 02:37:24;;;;;;;7.75;2.95;;;10.70;60.20;;;;;;5076016;28;20086;-65
2023/05/27 02:39:53;;;;;;;8.07;2.97;;;10.70;60.30;;;;;;5092667;28;20123;-65
2023/05/27 02:42:18;;;;;;;9.23;2.97;;;10.70;60.30;;;;;;5109688;27;20114;-65
2023/05/27 02:44:45;;;;;;;7.65;2.70;;;10.70;60.30;;;;;;5126700;27;20506;-65
2023/05/27 02:47:11;;;;;;;6.88;2.60;;;10.70;60.30;;;;;;5075775;28;20040;-65
2023/05/27 02:49:37;;;;;;;8.80;2.80;;;10.70;60.30;;;;;;5116055;27;20293;-65
2023/05/27 02:52:03;;;;;;;5.82;2.72;;;10.60;60.20;;;;;;5093087;28;20124;-65
2023/05/27 02:54:29;;;;;;;7.20;2.63;;;10.60;60.20;;;;;;5076147;28;20032;-65
2023/05/27 02:56:55;;;;;;;6.82;2.42;;;10.60;60.40;;;;;;5093112;28;20425;-65
2023/05/27 02:59:21;;;;;;;5.72;2.65;;;10.60;60.40;;;;;;5065244;28;20036;-65
2023/05/27 03:01:46;;;;;;;7.13;2.85;;;10.60;60.40;;;;;;5075456;28;20035;-65
2023/05/27 03:04:12;;;;;;;4.90;2.95;;;10.60;60.40;;;;;;5126747;27;20079;-65
2023/05/27 03:06:38;;;;;;;8.23;2.88;;;10.60;60.40;;;;;;5124518;27;20119;-65
2023/05/27 03:09:04;;;;;;;8.43;3.20;;;10.60;60.50;;;;;;5114848;27;20043;-65
2023/05/27 03:11:29;;;;;;;5.65;2.58;;;10.50;60.60;;;;;;5093567;28;20036;-65
2023/05/27 03:13:55;;;;;;;9.63;3.40;;;10.50;60.70;;;;;;5126900;27;20040;-65
2023/05/27 03:16:22;;;;;;;5.72;2.78;;;10.50;60.80;;;;;;5093087;28;20044;-65
2023/05/27 03:18:48;;;;;;;7.38;2.80;;;10.50;60.90;;;;;;5091940;28;20040;-65
2023/05/27 03:21:14;;;;;;;6.85;2.22;;;10.50;60.90;;;;;;5092228;28;20055;-65
2023/05/27 03:23:40;;;;;;;8.73;2.95;;;10.40;60.80;;;;;;5091790;28;20051;-65
2023/05/27 03:26:06;;;;;;;6.15;2.85;;;10.50;60.90;;;;;;5092293;28;20036;-64
2023/05/27 03:28:32;;;;;;;7.70;2.90;;;10.40;60.90;;;;;;5092068;28;20040;-65
2023/05/27 03:30:58;;;;;;;6.82;2.70;;;10.40;60.90;;;;;;5092002;28;20502;-65
2023/05/27 03:33:24;;;;;;;5.13;2.40;;;10.40;60.90;;;;;;5126274;27;20044;-65
2023/05/27 03:35:50;;;;;;;6.13;2.60;;;10.40;61.00;;;;;;5075123;28;20043;-65
2023/05/27 03:38:16;;;;;;;8.10;2.85;;;10.40;61.00;;;;;;5118702;27;20035;-65
2023/05/27 03:40:42;;;;;;;6.32;2.92;;;10.40;61.10;;;;;;5091819;28;20105;-65
2023/05/27 03:43:08;;;;;;;5.82;2.15;;;10.40;61.10;;;;;;5125239;27;20040;-65
2023/05/27 03:45:33;;;;;;;6.22;2.20;;;10.40;61.20;;;;;;5108136;27;20404;-65
2023/05/27 03:47:59;;;;;;;5.25;2.45;;;10.30;61.20;;;;;;5087735;28;20044;-65
2023/05/27 03:50:25;;;;;;;6.22;2.50;;;10.30;61.30;;;;;;5108308;27;20794;-65
2023/05/27 03:52:50;;;;;;;8.90;2.95;;;10.30;61.50;;;;;;5088018;28;20424;-65
2023/05/27 03:55:20;;;;;;;8.32;3.20;;;10.30;61.60;;;;;;5124120;27;20567;-65
2023/05/27 03:57:46;;;;;;;8.40;3.13;;;10.30;61.70;;;;;;5120043;27;20056;-65
2023/05/27 04:00:12;;;;;;;6.13;2.78;;;10.30;61.80;;;;;;5073880;28;20407;-65
2023/05/27 04:02:39;;;;;;;7.13;2.67;;;10.30;61.70;;;;;;5074458;28;20127;-65
2023/05/27 04:05:05;;;;;;;7.25;2.65;;;10.30;61.60;;;;;;5108727;27;20467;-65
2023/05/27 04:07:31;;;;;;;6.30;2.60;;;10.30;61.60;;;;;;5091881;28;20044;-65
2023/05/27 04:09:57;;;;;;;7.70;3.45;;;10.30;61.70;;;;;;5125510;28;20040;-65
2023/05/27 04:12:23;;;;;;;9.23;2.78;;;10.40;62.30;;;;;;5092789;28;20051;-65
2023/05/27 04:14:50;;;;;;;9.18;2.72;;;10.30;61.80;;;;;;5091651;28;20040;-65
2023/05/27 04:17:17;;;;;;;9.43;2.95;;;10.30;61.90;;;;;;5074249;28;20044;-65
2023/05/27 04:19:43;;;;;;;7.18;3.00;;;10.30;62.00;;;;;;5091607;28;20119;-64
2023/05/27 04:22:08;;;;;;;8.95;3.67;;;10.40;62.30;;;;;;5117864;28;20033;-65
2023/05/27 04:24:34;;;;;;;8.15;3.58;;;10.40;62.50;;;;;;5088181;28;20190;-65
2023/05/27 04:27:01;;;;;;;10.63;3.72;;;10.40;62.70;;;;;;5084555;28;20051;-65
2023/05/27 04:29:27;;;;;;;12.30;4.10;;;10.40;63.00;;;;;;5091253;28;20044;-65
2023/05/27 04:31:53;;;;;;;7.90;3.33;;;10.30;63.30;;;;;;5120611;28;20425;-65
2023/05/27 04:34:18;;;;;;;9.23;4.43;;;10.30;63.60;;;;;;5084883;28;20119;-65
2023/05/27 04:36:49;;;;;;;7.97;3.72;;;10.30;63.90;;;;;;5091257;28;20134;-65
2023/05/27 04:39:18;;;;;;;8.38;3.25;;;10.30;64.20;;;;;;5091051;28;20074;-65
2023/05/27 04:41:45;;;;;;;14.05;4.75;;;10.30;64.40;;;;;;5074231;28;20032;-66
2023/05/27 04:44:14;;;;;;;8.05;3.05;;;10.30;64.80;;;;;;5092464;28;20052;-65
2023/05/27 04:46:40;;;;;;;6.43;3.10;;;10.30;65.00;;;;;;5091112;28;20051;-65
2023/05/27 04:49:06;;;;;;;7.78;3.53;;;10.30;65.20;;;;;;5091065;28;20035;-65
2023/05/27 04:51:32;;;;;;;8.60;3.42;;;10.30;65.20;;;;;;5104559;28;20522;-65
2023/05/27 04:53:57;;;;;;;6.32;3.00;;;10.40;65.60;;;;;;5092731;28;20044;-65
2023/05/27 04:56:23;;;;;;;9.35;3.20;;;10.40;65.80;;;;;;5094834;28;20391;-65
2023/05/27 04:58:49;;;;;;;7.45;3.70;;;10.40;66.00;;;;;;5094878;28;20380;-65
2023/05/27 05:01:20;;;;;;;9.02;3.42;;;10.40;66.10;;;;;;5119238;27;20051;-65
2023/05/27 05:04:02;;;;;;;9.27;3.80;;;10.50;66.50;;;;;;5074584;28;20476;-65
2023/05/27 05:06:28;;;;;;;10.10;3.22;;;10.50;66.80;;;;;;5095183;27;20049;-65
2023/05/27 05:08:54;;;;;;;12.57;4.03;;;10.50;67.20;;;;;;5088771;28;20040;-65
2023/05/27 05:11:19;;;;;;;17.33;4.72;;;10.50;67.50;;;;;;5128539;27;20076;-65
2023/05/27 05:13:45;;;;;;;13.13;5.00;;;10.50;68.20;;;;;;5095891;28;20052;-65
2023/05/27 05:16:11;;;;;;;14.00;4.53;;;10.60;68.80;;;;;;5094251;28;20036;-65
2023/05/27 05:18:37;;;;;;;14.13;5.35;;;10.70;69.10;;;;;;5077945;28;20085;-65
2023/05/27 05:21:02;;;;;;;13.35;4.38;;;10.70;69.30;;;;;;5129057;27;20040;-65
2023/05/27 05:23:29;;;;;;;12.48;3.92;;;10.70;69.50;;;;;;5111982;27;20032;-65
2023/05/27 05:25:58;;;;;;;12.57;4.90;;;10.80;69.80;;;;;;5074297;28;20044;-65
2023/05/27 05:28:24;;;;;;;13.60;4.22;;;10.90;70.00;;;;;;5083844;28;20035;-65
2023/05/27 05:30:50;;;;;;;12.90;4.88;;;11.00;70.70;;;;;;5128807;27;20047;-65
2023/05/27 05:33:15;;;;;;;11.93;4.55;;;11.20;70.80;;;;;;5077128;28;20048;-65
2023/05/27 05:35:41;;;;;;;14.18;5.45;;;11.40;70.90;;;;;;5123744;27;20097;-65
2023/05/27 05:38:07;;;;;;;15.05;4.28;;;11.60;70.80;;;;;;5060749;28;20042;-65
2023/05/27 05:40:32;;;;;;;12.40;4.45;;;11.90;70.60;;;;;;5094337;28;20043;-65
2023/05/27 05:42:58;;;;;;;11.55;4.22;;;12.20;70.20;;;;;;5093711;28;20044;-65
2023/05/27 05:45:25;;;;;;;16.73;4.68;;;12.60;69.20;;;;;;5128028;27;20056;-65
2023/05/27 05:47:51;;;;;;;14.07;4.75;;;13.00;68.90;;;;;;5126419;27;20112;-65
2023/05/27 05:50:16;;;;;;;13.23;4.22;;;13.40;67.20;;;;;;5094014;28;20122;-65
2023/05/27 05:52:42;;;;;;;14.98;5.10;;;13.70;66.60;;;;;;5077072;28;20043;-65
2023/05/27 05:55:08;;;;;;;14.70;4.20;;;14.00;65.80;;;;;;5126562;27;20052;-65
2023/05/27 05:57:34;;;;;;;16.30;4.55;;;14.30;65.30;;;;;;5127843;27;20044;-65
2023/05/27 06:00:00;;;;;;;12.63;4.25;;;14.60;64.60;;;;;;5093911;28;20076;-65
2023/05/27 06:02:26;;;;;;;12.43;4.75;;;14.90;64.00;;;;;;5093528;28;20076;-66
2023/05/27 06:04:51;;;;;;;11.63;4.05;;;15.30;63.00;;;;;;5075859;28;20058;-65
2023/05/27 06:07:17;;;;;;;17.48;4.35;;;15.50;61.90;;;;;;5093374;28;20083;-66
2023/05/27 06:09:44;;;;;;;15.48;4.35;;;15.80;61.60;;;;;;5076481;28;20032;-66
2023/05/27 06:12:10;;;;;;;17.52;4.22;;;16.00;60.00;;;;;;5119110;27;20396;-66
2023/05/27 06:14:36;;;;;;;12.18;3.90;;;16.10;59.40;;;;;;5073671;28;20166;-65
2023/05/27 06:17:01;;;;;;;10.23;3.80;;;16.30;59.60;;;;;;5079653;28;20518;-65
2023/05/27 06:19:27;;;;;;;14.70;4.50;;;16.50;59.10;;;;;;5076864;28;20131;-66
2023/05/27 06:21:53;;;;;;;13.55;4.13;;;16.70;58.40;;;;;;5092832;28;20509;-65
2023/05/27 06:24:19;;;;;;;11.82;4.20;;;17.00;57.70;;;;;;5092795;28;20048;-66
2023/05/27 06:26:45;;;;;;;11.70;4.10;;;17.20;56.70;;;;;;5094689;28;20040;-66
2023/05/27 06:29:10;;;;;;;9.40;3.67;;;17.50;56.50;;;;;;5076780;28;20042;-66
2023/05/27 06:31:36;;;;;;;12.57;3.95;;;17.70;55.90;;;;;;5093219;28;20036;-66
2023/05/27 06:34:02;;;;;;;15.40;4.65;;;17.90;55.80;;;;;;5098815;28;20106;-66
2023/05/27 06:36:28;;;;;;;19.15;5.45;;;18.00;55.40;;;;;;5094535;28;20046;-66
2023/05/27 06:38:53;;;;;;;18.88;4.22;;;18.00;54.30;;;;;;5127667;27;20048;-66
2023/05/27 06:41:19;;;;;;;17.00;4.60;;;17.80;53.80;;;;;;5122891;27;20051;-66
2023/05/27 06:43:45;;;;;;;12.18;4.35;;;17.60;54.30;;;;;;5083112;28;20052;-66
2023/05/27 06:46:11;;;;;;;13.88;4.45;;;17.50;55.30;;;;;;5127194;27;20104;-66
2023/05/27 06:48:36;;;;;;;13.13;4.38;;;17.40;55.10;;;;;;5123496;27;20076;-66
2023/05/27 06:51:02;;;;;;;11.18;4.05;;;17.30;55.10;;;;;;5086554;28;20449;-66
2023/05/27 06:53:28;;;;;;;12.57;4.30;;;17.20;55.20;;;;;;5075824;28;20040;-66
2023/05/27 06:55:55;;;;;;;12.15;4.30;;;17.10;55.40;;;;;;5092830;28;20093;-66
2023/05/27 06:58:20;;;;;;;12.65;4.15;;;17.00;55.70;;;;;;5091184;28;20056;-66
2023/05/27 07:00:46;;;;;;;12.88;4.70;;;17.00;56.20;;;;;;5075421;28;20058;-66
2023/05/27 07:03:12;;;;;;;14.70;3.72;;;17.00;56.50;;;;;;5074810;28;20119;-66
2023/05/27 07:05:38;;;;;;;17.10;4.43;;;17.00;56.30;;;;;;5126852;27;20135;-66
2023/05/27 07:08:05;;;;;;;12.45;4.35;;;17.00;56.30;;;;;;5074427;28;20491;-66
2023/05/27 07:10:30;;;;;;;16.70;4.72;;;17.10;56.10;;;;;;5092556;28;20119;-66
2023/05/27 07:12:56;;;;;;;10.85;3.90;;;17.20;56.00;;;;;;5075076;28;20119;-66
2023/05/27 07:15:22;;;;;;;18.27;5.07;;;17.10;55.10;;;;;;5075890;28;20048;-66
2023/05/27 07:17:47;;;;;;;13.60;3.83;;;17.00;54.40;;;;;;5092185;28;20574;-66
2023/05/27 07:20:13;;;;;;;16.08;4.57;;;16.80;55.00;;;;;;5092384;28;20047;-66
2023/05/27 07:22:39;;;;;;;13.70;3.58;;;16.70;55.20;;;;;;5091218;28;20032;-66
2023/05/27 07:25:05;;;;;;;14.48;4.43;;;16.70;55.30;;;;;;5092240;28;20076;-66
2023/05/27 07:27:31;;;;;;;12.30;4.13;;;16.60;55.60;;;;;;5091622;28;20043;-66
2023/05/27 07:29:56;;;;;;;13.10;3.78;;;16.50;55.50;;;;;;5091913;28;20036;-66
2023/05/27 07:32:23;;;;;;;15.15;4.32;;;16.50;55.80;;;;;;5093288;28;20153;-66
2023/05/27 07:34:49;;;;;;;15.05;4.30;;;16.60;56.50;;;;;;5126038;27;20061;-66
2023/05/27 07:37:15;;;;;;;13.98;3.75;;;16.60;56.70;;;;;;5075015;28;20032;-66
2023/05/27 07:39:40;;;;;;;16.08;5.15;;;16.70;56.70;;;;;;5093012;28;20061;-66
2023/05/27 07:42:06;;;;;;;13.13;4.18;;;16.80;56.10;;;;;;5091157;28;20146;-66
2023/05/27 07:44:32;;;;;;;15.02;4.50;;;16.90;56.60;;;;;;5091466;28;20052;-68
2023/05/27 07:46:58;;;;;;;14.80;4.80;;;16.90;56.30;;;;;;5114106;27;20040;-67
2023/05/27 07:49:25;;;;;;;12.70;4.20;;;17.00;55.90;;;;;;5115632;27;20061;-68
2023/05/27 07:51:50;;;;;;;12.73;4.22;;;17.10;55.60;;;;;;5112961;27;20102;-68
2023/05/27 07:54:16;;;;;;;16.25;4.32;;;17.20;55.90;;;;;;5092801;28;20044;-68
2023/05/27 07:56:42;;;;;;;13.55;5.18;;;17.30;55.60;;;;;;5123750;27;20054;-68
2023/05/27 07:59:08;;;;;;;12.85;4.75;;;17.30;55.30;;;;;;5091510;28;20054;-68
2023/05/27 08:01:33;;;;;;;13.30;4.88;;;17.40;55.20;;;;;;5091441;28;20043;-68
2023/05/27 08:03:59;;;;;;;10.50;3.80;;;17.70;55.60;;;;;;5091305;28;20505;-68
2023/05/27 08:06:25;;;;;;;15.13;5.15;;;17.80;54.80;;;;;;5091361;28;20032;-68
2023/05/27 08:08:51;;;;;;;10.52;4.18;;;18.00;55.00;;;;;;5091365;28;20042;-67
2023/05/27 08:11:17;;;;;;;12.70;4.10;;;18.00;54.40;;;;;;5121414;28;20043;-67
2023/05/27 08:13:42;;;;;;;12.70;4.30;;;18.10;54.20;;;;;;5088204;28;20113;-68
2023/05/27 08:16:09;;;;;;;14.77;4.53;;;18.30;54.60;;;;;;5092098;28;20479;-68
2023/05/27 08:18:36;;;;;;;14.25;4.30;;;18.40;53.70;;;;;;5089226;28;20040;-68
2023/05/27 08:21:02;;;;;;;18.00;5.13;;;18.40;52.70;;;;;;5122182;28;20562;-68
2023/05/27 08:23:28;;;;;;;15.95;4.47;;;18.40;53.20;;;;;;5071079;28;20122;-68
2023/05/27 08:25:53;;;;;;;12.35;4.10;;;18.40;52.80;;;;;;5110696;28;20050;-67
2023/05/27 08:28:19;;;;;;;15.02;4.70;;;18.40;52.90;;;;;;5072806;28;20039;-69
2023/05/27 08:30:46;;;;;;;15.38;4.25;;;18.60;52.60;;;;;;5077499;28;20036;-69
2023/05/27 08:33:12;;;;;;;12.30;4.28;;;18.70;52.30;;;;;;5078337;28;20502;-69
2023/05/27 08:35:38;;;;;;;12.57;4.57;;;18.90;52.20;;;;;;5093810;28;20043;-69
2023/05/27 08:38:03;;;;;;;12.52;4.30;;;19.10;51.90;;;;;;5094314;28;20062;-69
2023/05/27 08:40:29;;;;;;;12.13;4.28;;;19.30;51.50;;;;;;5089936;28;20098;-68
2023/05/27 08:42:56;;;;;;;15.27;5.03;;;19.50;50.40;;;;;;5115331;27;20344;-69
2023/05/27 08:45:22;;;;;;;15.52;4.32;;;19.60;50.10;;;;;;5114235;27;20114;-68
2023/05/27 08:47:49;;;;;;;14.32;4.82;;;19.70;49.60;;;;;;5121838;27;20090;-68
2023/05/27 08:50:14;;;;;;;12.55;4.35;;;19.70;48.80;;;;;;5120084;27;20036;-68
2023/05/27 08:52:49;;;;;;;12.63;4.03;;;19.70;49.20;;;;;;5123232;27;20040;-68
2023/05/27 08:55:20;;;;;;;15.00;4.30;;;19.80;49.30;;;;;;5123146;27;20048;-68
2023/05/27 08:57:51;;;;;;;13.73;4.43;;;19.90;49.00;;;;;;5114541;27;20483;-69
2023/05/27 09:00:17;;;;;;;15.45;4.82;;;20.00;49.50;;;;;;5088901;28;20050;-68
2023/05/27 09:02:43;;;;;;;12.10;3.92;;;20.20;49.10;;;;;;5122893;27;20070;-68
2023/05/27 09:05:10;;;;;;;13.57;5.30;;;20.30;48.80;;;;;;5122226;27;20072;-69
2023/05/27 09:07:37;;;;;;;10.75;4.13;;;20.40;48.40;;;;;;5120481;27;20117;-68
2023/05/27 09:10:06;;;;;;;13.57;4.13;;;20.50;47.60;;;;;;5094988;28;20424;-68
2023/05/27 09:12:32;;;;;;;14.43;4.75;;;20.50;47.70;;;;;;5094367;28;20048;-68
2023/05/27 09:14:58;;;;;;;13.68;4.60;;;20.60;47.60;;;;;;5077935;28;20070;-68
2023/05/27 09:17:24;;;;;;;13.02;4.18;;;20.70;47.30;;;;;;5094357;28;20439;-68
2023/05/27 09:19:51;;;;;;;13.82;4.53;;;20.70;47.80;;;;;;5129291;27;20082;-68
2023/05/27 09:22:26;;;;;;;13.23;4.88;;;20.70;47.60;;;;;;5077331;28;20043;-68
2023/05/27 09:24:56;;;;;;;9.93;4.43;;;20.80;46.90;;;;;;5128810;27;20072;-68
2023/05/27 09:27:32;;;;;;;11.35;4.80;;;20.90;47.80;;;;;;5128903;27;20109;-68
2023/05/27 09:30:09;;;;;;;14.13;4.78;;;21.00;47.40;;;;;;5095007;28;20036;-68
2023/05/27 09:32:35;;;;;;;11.07;4.13;;;21.20;47.30;;;;;;5094479;28;20487;-68
2023/05/27 09:35:01;;;;;;;13.73;3.88;;;21.30;46.70;;;;;;5094436;28;20040;-69
2023/05/27 09:37:34;;;;;;;13.52;4.72;;;21.40;45.40;;;;;;5094208;28;20047;-68
2023/05/27 09:40:04;;;;;;;16.73;4.60;;;21.40;45.30;;;;;;5107784;28;20055;-68
2023/05/27 09:42:47;;;;;;;12.85;4.38;;;21.40;44.70;;;;;;5097403;28;20056;-68
2023/05/27 09:45:23;;;;;;;12.00;4.60;;;21.60;45.40;;;;;;5093662;28;20052;-68
2023/05/27 09:47:53;;;;;;;9.88;5.03;;;21.60;45.10;;;;;;5077352;28;20150;-68
2023/05/27 09:50:21;;;;;;;12.95;5.15;;;21.70;45.30;;;;;;5077691;28;20424;-68
2023/05/27 09:52:48;;;;;;;16.52;5.25;;;21.60;44.10;;;;;;5128186;27;20044;-68
2023/05/27 09:55:15;;;;;;;15.43;5.18;;;21.60;44.20;;;;;;5112936;27;20036;-68
2023/05/27 09:57:41;;;;;;;14.65;4.32;;;21.60;44.60;;;;;;5076083;28;20037;-68
2023/05/27 10:00:11;;;;;;;11.77;4.43;;;21.60;44.70;;;;;;5107914;27;20075;-68
2023/05/27 10:02:39;;;;;;;11.52;5.03;;;21.70;45.00;;;;;;5073614;28;20050;-68
2023/05/27 10:05:10;;;;;;;12.55;4.63;;;21.90;44.80;;;;;;5093824;28;20050;-68
2023/05/27 10:07:43;;;;;;;8.82;4.30;;;22.00;44.00;;;;;;5094093;28;20121;-68
2023/05/27 10:10:11;;;;;;;16.47;5.93;;;22.00;43.90;;;;;;5094063;28;20044;-68
2023/05/27 10:12:42;;;;;;;13.20;5.05;;;22.10;43.50;;;;;;5093682;28;20526;-68
2023/05/27 10:15:08;;;;;;;11.20;3.72;;;22.20;44.10;;;;;;5077088;28;20438;-68
2023/05/27 10:17:48;;;;;;;13.63;5.65;;;22.30;43.80;;;;;;5119341;27;20041;-68
2023/05/27 10:20:33;;;;;;;12.45;4.72;;;22.40;43.00;;;;;;5073693;28;20126;-68
2023/05/27 10:23:12;;;;;;;11.00;4.63;;;22.40;42.70;;;;;;5073459;28;20373;-68
2023/05/27 10:25:40;;;;;;;14.18;5.43;;;22.40;41.90;;;;;;5073182;28;20545;-68
2023/05/27 10:28:05;;;;;;;15.07;5.68;;;22.40;42.20;;;;;;5089867;28;20066;-68
2023/05/27 10:30:44;;;;;;;14.35;5.22;;;22.30;41.40;;;;;;5076555;28;20044;-68
2023/05/27 10:33:10;;;;;;;14.27;5.35;;;22.30;42.20;;;;;;5127117;27;20127;-68
2023/05/27 10:35:43;;;;;;;12.60;4.57;;;22.30;42.00;;;;;;5112992;27;20520;-68
2023/05/27 10:38:18;;;;;;;12.70;4.93;;;22.30;41.40;;;;;;5072936;28;20130;-68
2023/05/27 10:40:46;;;;;;;12.75;5.22;;;22.40;42.00;;;;;;5075992;28;20048;-68
2023/05/27 10:43:18;;;;;;;12.30;5.22;;;22.40;42.00;;;;;;5127084;27;20040;-68
2023/05/27 10:45:45;;;;;;;10.95;4.53;;;22.50;41.20;;;;;;5126922;27;20395;-69
2023/05/27 10:48:28;;;;;;;10.85;4.30;;;22.50;40.60;;;;;;5107793;27;20067;-68
2023/05/27 10:50:57;;;;;;;11.95;4.70;;;22.50;41.00;;;;;;5087518;28;20042;-69
2023/05/27 10:53:29;;;;;;;16.27;5.60;;;22.50;41.80;;;;;;5075773;28;20048;-68
2023/05/27 10:55:58;;;;;;;11.68;5.00;;;22.50;40.40;;;;;;5115361;27;20052;-68
2023/05/27 10:58:23;;;;;;;16.52;5.28;;;22.60;41.00;;;;;;5072556;28;20052;-69
2023/05/27 11:00:51;;;;;;;13.65;5.20;;;22.60;41.10;;;;;;5072504;28;20040;-68
2023/05/27 11:03:24;;;;;;;13.45;5.28;;;22.60;41.10;;;;;;5072279;28;20048;-69
2023/05/27 11:06:06;;;;;;;13.80;5.60;;;22.70;40.60;;;;;;5090507;28;20051;-68
2023/05/27 11:08:33;;;;;;;14.73;5.15;;;22.60;40.40;;;;;;5092651;28;20069;-69
2023/05/27 11:11:07;;;;;;;15.73;6.15;;;22.60;40.60;;;;;;5075506;28;20036;-69
2023/05/27 11:13:33;;;;;;;;;;;22.60;40.00;;;;;;5093305;28;20131;-68
2023/05/27 11:16:01;;;;;;;13.32;5.30;;;22.50;41.70;;;;;;5075614;28;19916;-69
2023/05/27 11:18:35;;;;;;;15.80;5.18;;;22.50;40.20;;;;;;5092347;28;20422;-69
2023/05/27 11:21:02;;;;;;;;;;;22.50;39.10;;;;;;5092618;28;20047;-69
2023/05/27 11:23:45;;;;;;;13.40;5.03;;;22.20;39.90;;;;;;5091747;28;20324;-69
2023/05/27 11:26:19;;;;;;;14.55;5.13;;;22.10;40.60;;;;;;5092336;28;20043;-68
2023/05/27 11:28:54;;;;;;;14.98;5.53;;;22.10;40.20;;;;;;5126491;27;20040;-69
2023/05/27 11:31:22;;;;;;;11.85;4.93;;;21.90;39.60;;;;;;5126338;27;20036;-69
2023/05/27 11:33:51;;;;;;;12.45;5.45;;;21.80;40.10;;;;;;5126330;27;20048;-69
2023/05/27 11:36:20;;;;;;;12.10;4.35;;;21.80;40.80;;;;;;5126359;27;20051;-69
2023/05/27 11:38:57;;;;;;;12.85;5.75;;;21.80;41.30;;;;;;5115253;27;20119;-69
2023/05/27 11:41:27;;;;;;;10.50;4.82;;;21.90;40.00;;;;;;5091538;28;20115;-69
2023/05/27 11:44:03;;;;;;;12.43;5.22;;;21.90;40.80;;;;;;5125932;27;20098;-69
2023/05/27 11:46:35;;;;;;;15.38;6.38;;;21.90;40.10;;;;;;5126087;27;20052;-69
2023/05/27 11:49:06;;;;;;;17.27;5.60;;;21.90;40.10;;;;;;5125967;27;20467;-69
2023/05/27 11:51:34;;;;;;;12.23;5.55;;;21.70;39.30;;;;;;5125906;27;20063;-69
2023/05/27 11:54:03;;;;;;;12.40;4.78;;;21.60;39.90;;;;;;5091829;28;20081;-69
2023/05/27 11:56:29;;;;;;;12.48;5.30;;;21.60;41.20;;;;;;5091836;28;20425;-69
2023/05/27 11:58:56;;;;;;;15.48;5.38;;;21.60;41.40;;;;;;5125950;27;20050;-69
2023/05/27 12:01:22;;;;;;;15.43;5.32;;;21.80;41.50;;;;;;5126238;27;20127;-67
2023/05/27 12:03:48;;;;;;;12.82;5.40;;;21.80;41.20;;;;;;5123197;27;20043;-68
2023/05/27 12:06:13;;;;;;;14.02;5.72;;;21.80;41.90;;;;;;5120562;27;20407;-68
2023/05/27 12:08:41;;;;;;;17.98;5.72;;;21.80;42.00;;;;;;5088741;28;20040;-68
2023/05/27 12:11:07;;;;;;;11.60;4.90;;;21.90;41.90;;;;;;5071346;28;20479;-67
2023/05/27 12:13:32;;;;;;;16.88;6.15;;;22.00;41.60;;;;;;5105278;28;20044;-68
2023/05/27 12:15:58;;;;;;;13.88;4.95;;;22.10;41.70;;;;;;5088625;28;20040;-68
2023/05/27 12:18:24;;;;;;;13.32;5.50;;;22.20;41.40;;;;;;5088230;28;20403;-67
2023/05/27 12:20:50;;;;;;;14.68;5.38;;;22.20;41.40;;;;;;5125891;28;20429;-67
2023/05/27 12:23:16;;;;;;;13.88;5.22;;;22.20;41.30;;;;;;5070939;28;20040;-67
2023/05/27 12:25:42;;;;;;;12.27;4.63;;;22.30;41.10;;;;;;5105210;28;20048;-67
2023/05/27 12:28:09;;;;;;;10.70;4.47;;;22.40;41.30;;;;;;5071266;28;20048;-67
2023/05/27 12:30:36;;;;;;;11.13;4.78;;;22.50;40.80;;;;;;5071306;28;20040;-67
2023/05/27 12:33:06;;;;;;;10.30;4.47;;;22.60;41.10;;;;;;5078569;28;20040;-68
2023/05/27 12:35:32;;;;;;;11.60;4.70;;;22.70;40.60;;;;;;5104877;28;20044;-68
2023/05/27 12:37:58;;;;;;;15.00;5.43;;;22.80;40.70;;;;;;5113033;28;20071;-68
2023/05/27 12:40:27;;;;;;;13.77;5.38;;;22.90;41.00;;;;;;5091316;28;20363;-68
2023/05/27 12:42:53;;;;;;;13.52;4.90;;;23.10;41.40;;;;;;5125026;28;20044;-67